Time;durP1;ratioP1;P1;durP2;ratioP2;P2;SDS_P1;SDS_P2;PMS_P1;PMS_P2;Temp;Humidity;BMP_temperature;BMP_pressure;BME280_temperature;BME280_humidity;BME280_pressure;Samples;Min_cycle;Max_cycle;Signal;HPM_P1;HPM_P2
2022/01/28 00:01:54;;;;;;;15.10;10.03;;;;;;;7.33;58.67;101637.25;1741323;81;20996;-52
2022/01/28 00:04:15;;;;;;;13.95;9.58;;;;;;;7.33;58.79;101626.47;1771164;80;21054;-52
2022/01/28 00:06:41;;;;;;;15.10;9.95;;;;;;;7.35;58.81;101622.59;1747361;81;21101;-51
2022/01/28 00:09:07;;;;;;;12.00;8.25;;;;;;;7.38;58.82;101620.00;1748405;80;21081;-52
2022/01/28 00:11:34;;;;;;;11.83;9.00;;;;;;;7.41;58.76;101616.14;1758980;80;20998;-51
2022/01/28 00:14:16;;;;;;;11.05;8.65;;;;;;;7.43;58.65;101610.55;1771795;80;21043;-51
2022/01/28 00:38:09;;;;;;;11.15;7.78;;;;;;;7.47;58.57;101570.85;1628115;87;21132;-51
2022/01/28 00:40:33;;;;;;;10.60;7.15;;;;;;;7.45;58.57;101560.92;1613667;88;21147;-51
2022/01/28 00:43:01;;;;;;;10.78;7.50;;;;;;;7.45;58.64;101551.86;1596766;89;21105;-51
2022/01/28 00:45:27;;;;;;;10.90;8.15;;;;;;;7.46;58.70;101552.73;1589454;89;21611;-51
2022/01/28 00:47:54;;;;;;;14.25;8.90;;;;;;;7.47;58.76;101544.95;1591835;89;21160;-51
2022/01/28 00:50:21;;;;;;;11.50;8.18;;;;;;;7.50;58.75;101546.70;1585544;89;21088;-54
2022/01/28 00:52:48;;;;;;;10.53;8.68;;;;;;;7.52;58.74;101541.97;1605014;88;21093;-51
2022/01/28 00:55:14;;;;;;;11.30;8.33;;;;;;;7.53;58.67;101532.03;1613666;87;21081;-51
2022/01/28 00:57:41;;;;;;;10.18;8.63;;;;;;;7.54;58.60;101527.30;1640067;86;21604;-51
2022/01/28 01:00:10;;;;;;;12.95;9.45;;;;;;;7.55;58.66;101521.66;1618956;87;21030;-51
2022/01/28 01:02:37;;;;;;;12.58;9.63;;;;;;;7.57;58.62;101521.23;1644979;86;21124;-51
2022/01/28 01:05:05;;;;;;;15.43;10.93;;;;;;;7.57;58.71;101515.64;1638209;86;21139;-51
2022/01/28 01:07:31;;;;;;;13.78;9.68;;;;;;;7.62;58.63;101516.95;1645992;86;21046;-52
2022/01/28 01:09:58;;;;;;;14.63;11.65;;;;;;;7.64;58.47;101516.52;1661825;86;21684;-51
2022/01/28 01:12:26;;;;;;;17.42;12.28;;;;;;;7.63;58.43;101507.87;1647954;86;21121;-52
2022/01/28 01:14:53;;;;;;;20.15;12.45;;;;;;;7.63;58.42;101497.52;1646466;85;21081;-51
2022/01/28 01:17:30;;;;;;;17.70;12.73;;;;;;;7.61;58.47;101495.78;1650203;83;21589;-52
2022/01/28 01:19:53;;;;;;;17.90;12.80;;;;;;;7.61;58.52;101488.88;1708667;82;21023;-51
2022/01/28 01:22:19;;;;;;;17.02;13.25;;;;;;;7.60;58.59;101485.88;1711249;82;21003;-51
2022/01/28 01:24:52;;;;;;;20.25;12.95;;;;;;;7.61;58.64;101479.81;1697177;83;21058;-51
2022/01/28 01:27:19;;;;;;;20.90;15.00;;;;;;;7.63;58.57;101484.56;1704619;83;21522;-52
2022/01/28 01:29:46;;;;;;;18.65;14.83;;;;;;;7.63;58.53;101479.39;1683459;84;21068;-51
2022/01/28 01:32:16;;;;;;;19.80;14.00;;;;;;;7.62;58.54;101477.67;1693832;83;21532;-51
2022/01/28 01:34:42;;;;;;;19.32;14.87;;;;;;;7.62;58.59;101476.38;1703636;83;21032;-51
2022/01/28 01:37:10;;;;;;;20.57;15.38;;;;;;;7.62;58.57;101473.79;1695395;83;21573;-51
2022/01/28 01:39:38;;;;;;;21.02;15.18;;;;;;;7.60;58.66;101469.04;1753109;80;21006;-51
2022/01/28 01:52:22;;;;;;;23.25;15.90;;;;;;;7.65;58.81;101472.48;1673970;84;21061;-52
2022/01/28 01:54:50;;;;;;;22.55;16.02;;;;;;;7.64;58.78;101473.36;1672200;85;21030;-52
2022/01/28 01:57:17;;;;;;;19.92;15.50;;;;;;;7.64;58.95;101470.77;1671919;84;21617;-52
2022/01/28 01:59:44;;;;;;;22.87;16.12;;;;;;;7.66;59.07;101465.58;1679392;85;21006;-52
2022/01/28 02:02:11;;;;;;;23.60;15.88;;;;;;;7.67;59.03;101457.80;1685371;84;21057;-51
2022/01/28 02:04:38;;;;;;;24.00;16.27;;;;;;;7.68;58.85;101447.89;1676857;84;21037;-52
2022/01/28 02:07:05;;;;;;;26.87;15.95;;;;;;;7.69;58.67;101443.13;1672759;84;21089;-52
2022/01/28 02:09:32;;;;;;;23.42;15.43;;;;;;;7.66;58.64;101437.09;1681506;85;21050;-52
2022/01/28 02:11:58;;;;;;;21.87;15.80;;;;;;;7.66;58.62;101438.39;1680502;84;21518;-52
2022/01/28 02:14:25;;;;;;;25.80;16.00;;;;;;;7.65;58.67;101433.63;1675574;84;21081;-52
2022/01/28 02:16:51;;;;;;;22.17;15.40;;;;;;;7.63;58.61;101427.59;1673076;85;21608;-52
2022/01/28 02:19:18;;;;;;;19.35;14.75;;;;;;;7.64;58.66;101425.45;1685021;84;21042;-52
2022/01/28 02:21:48;;;;;;;20.05;14.60;;;;;;;7.63;58.65;101422.41;1674692;85;21509;-52
2022/01/28 02:24:16;;;;;;;23.87;15.60;;;;;;;7.62;58.54;101425.88;1664541;85;21053;-53
2022/01/28 02:26:41;;;;;;;22.05;16.37;;;;;;;7.60;58.42;101423.72;1675498;85;21034;-51
2022/01/28 02:29:12;;;;;;;23.85;14.85;;;;;;;7.59;58.42;101418.09;1702691;82;21011;-51
2022/01/28 02:31:36;;;;;;;21.95;14.45;;;;;;;7.58;58.44;101418.97;1682498;84;21066;-52
2022/01/28 02:34:05;;;;;;;20.15;14.70;;;;;;;7.55;58.32;101421.53;1652065;85;21114;-52
2022/01/28 02:36:32;;;;;;;23.12;14.63;;;;;;;7.57;58.14;101429.30;1705362;82;21121;-52
2022/01/28 02:39:00;;;;;;;21.45;14.87;;;;;;;7.54;57.66;101425.00;1677098;84;21582;-51
2022/01/28 02:41:31;;;;;;;20.20;14.87;;;;;;;7.51;57.37;101420.23;1677581;84;21052;-51
2022/01/28 02:46:29;;;;;;;20.32;14.78;;;;;;;7.43;56.81;101405.98;1623848;86;21055;-51
2022/01/28 02:49:03;;;;;;;19.32;14.30;;;;;;;7.40;56.68;101408.56;1649113;86;21550;-53
2022/01/28 02:51:23;;;;;;;19.20;14.43;;;;;;;7.37;56.41;101412.03;1647538;85;21061;-51
2022/01/28 02:56:34;;;;;;;17.75;14.50;;;;;;;7.32;55.75;101415.03;1608231;89;21065;-54
2022/01/28 02:58:52;;;;;;;18.87;14.25;;;;;;;7.27;55.46;101414.59;1603945;89;21139;-51
2022/01/28 03:01:19;;;;;;;26.10;14.68;;;;;;;7.21;54.96;101418.47;1609677;89;21077;-51
2022/01/28 03:03:48;;;;;;;20.10;14.60;;;;;;;7.14;54.62;101414.99;1607792;89;21064;-51
2022/01/28 03:06:17;;;;;;;17.77;12.98;;;;;;;7.08;54.30;101408.51;1603459;89;21045;-51
2022/01/28 03:08:52;;;;;;;16.57;13.38;;;;;;;7.03;54.15;101411.92;1604960;88;21125;-51
2022/01/28 03:16:33;;;;;;;17.23;13.68;;;;;;;6.83;53.33;101404.11;1585928;89;21107;-51
2022/01/28 03:19:14;;;;;;;22.20;14.55;;;;;;;6.76;53.29;101400.20;1587296;90;21139;-51
2022/01/28 03:23:59;;;;;;;20.05;15.45;;;;;;;6.64;53.17;101401.42;1614883;86;21096;-51
2022/01/28 03:26:28;;;;;;;18.48;13.83;;;;;;;6.58;53.15;101403.56;1633790;87;21077;-51
2022/01/28 03:28:54;;;;;;;19.15;14.58;;;;;;;6.52;52.95;101399.23;1634132;86;21077;-51
2022/01/28 03:31:21;;;;;;;18.25;14.55;;;;;;;6.47;52.93;101391.87;1632829;87;21057;-51
2022/01/28 03:33:47;;;;;;;18.02;13.72;;;;;;;6.41;53.02;101391.84;1627620;85;21113;-51
2022/01/28 03:36:15;;;;;;;17.60;13.13;;;;;;;6.37;52.98;101380.17;1633910;87;21096;-51
2022/01/28 03:38:42;;;;;;;19.12;14.78;;;;;;;6.33;53.10;101370.68;1635900;87;21117;-51
2022/01/28 03:41:15;;;;;;;16.73;13.68;;;;;;;6.30;53.01;101361.22;1633219;87;21037;-50
2022/01/28 03:43:40;;;;;;;21.27;13.98;;;;;;;6.22;52.82;101360.73;1624415;87;21577;-51
2022/01/28 03:46:07;;;;;;;18.07;14.38;;;;;;;6.22;52.82;101360.73;1634026;87;21065;-50
2022/01/28 03:48:33;;;;;;;22.02;14.68;;;;;;;6.21;52.74;101367.61;1636188;87;21132;-51
2022/01/28 03:51:00;;;;;;;18.95;14.65;;;;;;;6.22;52.68;101363.31;1636996;87;21565;-51
2022/01/28 03:53:27;;;;;;;23.12;14.38;;;;;;;6.19;52.79;101361.57;1670398;83;21026;-51
2022/01/28 03:55:56;;;;;;;18.50;14.07;;;;;;;6.18;52.67;101367.58;1708775;83;21046;-51
2022/01/28 03:58:22;;;;;;;21.25;14.65;;;;;;;6.17;52.58;101360.70;1716588;83;21047;-53
2022/01/28 04:00:48;;;;;;;22.20;15.10;;;;;;;6.11;52.67;101361.96;1709457;83;21583;-50
2022/01/28 04:11:35;;;;;;;22.83;15.30;;;;;;;6.05;52.60;101352.88;1667897;85;21059;-51
2022/01/28 04:19:23;;;;;;;19.07;14.73;;;;;;;6.02;52.62;101346.39;1599556;87;21080;-51
2022/01/28 04:21:50;;;;;;;19.50;15.28;;;;;;;6.02;52.47;101350.27;1592843;88;21118;-51
2022/01/28 04:24:17;;;;;;;21.12;14.87;;;;;;;6.02;52.44;101348.97;1624661;86;21142;-51
2022/01/28 04:26:44;;;;;;;18.32;14.13;;;;;;;6.01;52.30;101347.27;1599288;88;21078;-51
2022/01/28 04:29:13;;;;;;;20.45;14.25;;;;;;;6.00;52.32;101364.89;1604664;88;21078;-50
2022/01/28 04:31:43;;;;;;;19.73;15.00;;;;;;;5.99;52.34;101370.93;1608284;88;21030;-50
2022/01/28 04:34:10;;;;;;;19.48;14.43;;;;;;;5.95;52.46;101372.19;1594324;89;21058;-51
2022/01/28 04:36:46;;;;;;;19.57;14.93;;;;;;;5.92;52.42;101366.98;1602002;88;21082;-51
2022/01/28 04:44:19;;;;;;;17.55;13.65;;;;;;;5.85;52.32;101372.56;1470347;97;21610;-51
2022/01/28 04:46:49;;;;;;;21.05;15.50;;;;;;;5.84;52.34;101364.77;1464922;97;21119;-51
2022/01/28 04:49:20;;;;;;;18.15;14.03;;;;;;;5.81;52.25;101357.86;1468780;97;21163;-51
2022/01/28 04:57:06;;;;;;;19.37;15.13;;;;;;;5.78;52.27;101358.70;1469792;97;21551;-51
2022/01/28 05:02:32;;;;;;;20.97;15.72;;;;;;;5.74;52.20;101350.91;1425271;100;21555;-51
2022/01/28 05:05:00;;;;;;;21.15;15.70;;;;;;;5.72;52.20;101368.11;1417324;100;21115;-51
2022/01/28 05:15:51;;;;;;;20.75;14.80;;;;;;;5.65;52.22;101367.19;1481969;95;21176;-51
2022/01/28 05:28:55;;;;;;;22.02;16.23;;;;;;;5.55;52.39;101379.59;1509341;95;21150;-51
2022/01/28 05:31:21;;;;;;;20.50;14.68;;;;;;;5.56;52.46;101392.08;1530531;93;21104;-52
2022/01/28 05:33:49;;;;;;;21.55;16.42;;;;;;;5.56;52.27;101389.50;1517201;93;21124;-51
2022/01/28 05:36:15;;;;;;;20.97;15.20;;;;;;;5.56;52.23;101381.75;1524265;93;21070;-52
2022/01/28 05:38:43;;;;;;;19.80;15.20;;;;;;;5.56;52.35;101375.30;1557732;91;21558;-50
2022/01/28 05:41:09;;;;;;;19.85;15.08;;;;;;;5.57;52.45;101377.02;1615352;88;21073;-51
2022/01/28 05:43:36;;;;;;;25.02;15.53;;;;;;;5.57;52.46;101380.47;1615964;88;21057;-51
2022/01/28 05:46:02;;;;;;;22.20;15.83;;;;;;;5.57;52.37;101383.05;1611581;88;21042;-51
2022/01/28 05:48:29;;;;;;;23.27;16.35;;;;;;;5.58;52.27;101386.08;1601784;88;21079;-51
2022/01/28 05:50:55;;;;;;;23.47;16.20;;;;;;;5.58;52.27;101386.08;1610787;88;21089;-51
2022/01/28 05:53:21;;;;;;;20.35;15.45;;;;;;;5.60;52.29;101396.42;1604993;88;21581;-51
2022/01/28 05:55:48;;;;;;;21.25;14.90;;;;;;;5.62;52.19;101390.84;1658024;86;21020;-51
2022/01/28 05:58:14;;;;;;;21.85;16.45;;;;;;;5.64;52.17;101383.97;1655924;86;21007;-51
2022/01/28 06:00:41;;;;;;;28.35;16.60;;;;;;;5.64;52.14;101373.64;1650343;86;21572;-51
2022/01/28 06:03:07;;;;;;;21.93;15.80;;;;;;;5.66;52.10;101366.36;1655859;86;21582;-51
2022/01/28 06:05:34;;;;;;;20.70;15.48;;;;;;;5.67;52.06;101362.03;1653025;86;21175;-51
2022/01/28 06:08:01;;;;;;;22.48;15.88;;;;;;;5.68;51.92;101368.94;1663933;86;21050;-51
2022/01/28 06:10:28;;;;;;;23.70;16.95;;;;;;;5.69;52.01;101370.66;1655812;86;21091;-51
2022/01/28 06:12:54;;;;;;;24.32;16.77;;;;;;;5.68;52.10;101367.23;1659142;86;21025;-51
2022/01/28 06:15:21;;;;;;;22.77;16.57;;;;;;;5.71;51.99;101366.37;1664525;86;21018;-51
2022/01/28 06:17:47;;;;;;;21.37;16.30;;;;;;;5.70;51.78;101365.53;1661767;86;21096;-51
2022/01/28 06:20:18;;;;;;;23.95;16.60;;;;;;;5.69;51.88;101370.23;1664420;82;21056;-52
2022/01/28 06:22:45;;;;;;;22.15;16.07;;;;;;;5.70;52.00;101362.07;1770705;80;21046;-51
2022/01/28 06:25:16;;;;;;;23.00;16.60;;;;;;;5.71;52.00;101372.82;1762756;80;21125;-51
2022/01/28 06:27:43;;;;;;;22.67;16.42;;;;;;;5.73;52.02;101373.70;1742674;80;21034;-51
2022/01/28 06:30:10;;;;;;;23.92;16.62;;;;;;;5.75;52.07;101383.61;1757403;80;21010;-51
2022/01/28 06:32:37;;;;;;;21.60;16.75;;;;;;;5.76;51.89;101386.64;1759161;80;21066;-51
2022/01/28 06:35:08;;;;;;;23.98;16.17;;;;;;;5.77;51.92;101393.52;1752420;80;20992;-51
2022/01/28 06:37:41;;;;;;;21.23;15.87;;;;;;;5.75;51.91;101393.94;1754440;80;21041;-51
2022/01/28 06:40:10;;;;;;;21.42;16.07;;;;;;;5.77;51.89;101390.94;1657053;85;21109;-51
2022/01/28 06:42:37;;;;;;;21.90;15.38;;;;;;;5.78;51.97;101399.14;1649731;85;21038;-51
2022/01/28 06:45:06;;;;;;;24.32;16.73;;;;;;;5.79;51.88;101395.69;1668326;85;21149;-51
2022/01/28 06:47:35;;;;;;;22.73;15.98;;;;;;;5.78;51.86;101387.52;1655689;85;21030;-52
2022/01/28 06:50:05;;;;;;;22.48;17.00;;;;;;;5.80;51.93;101397.44;1662368;85;21080;-51
2022/01/28 06:52:33;;;;;;;24.98;17.32;;;;;;;5.81;52.07;101408.22;1651052;84;21572;-51
2022/01/28 06:55:01;;;;;;;23.70;16.65;;;;;;;5.83;52.03;101402.64;1673876;84;21077;-51
2022/01/28 06:57:29;;;;;;;22.58;16.90;;;;;;;5.84;51.99;101400.52;1659900;84;21059;-51
2022/01/28 06:59:56;;;;;;;21.57;15.70;;;;;;;5.85;52.00;101398.38;1654925;85;21094;-51
2022/01/28 07:02:22;;;;;;;24.32;17.75;;;;;;;5.87;52.01;101397.97;1652812;86;21543;-51
2022/01/28 07:04:49;;;;;;;24.90;17.73;;;;;;;5.89;51.93;101393.68;1645912;85;21532;-51
2022/01/28 07:07:17;;;;;;;21.65;16.37;;;;;;;5.91;52.01;101388.09;1649242;85;21503;-51
2022/01/28 07:09:43;;;;;;;21.05;16.67;;;;;;;5.95;52.03;101391.55;1651360;85;21583;-51
2022/01/28 07:12:11;;;;;;;22.58;16.55;;;;;;;5.98;51.95;101383.39;1638018;85;21055;-51
2022/01/28 07:14:37;;;;;;;24.32;17.40;;;;;;;6.02;52.04;101377.84;1648925;85;21061;-51
2022/01/28 07:17:04;;;;;;;21.62;16.42;;;;;;;6.07;52.09;101371.84;1657845;85;21100;-51
2022/01/28 07:19:32;;;;;;;23.02;16.87;;;;;;;6.14;51.88;101367.12;1650998;85;21067;-51
2022/01/28 07:21:59;;;;;;;21.37;16.30;;;;;;;6.20;51.85;101360.70;1656860;84;21161;-51
2022/01/28 07:24:25;;;;;;;21.85;16.90;;;;;;;6.28;51.90;101364.22;1658887;85;21619;-51
2022/01/28 07:26:52;;;;;;;21.17;16.40;;;;;;;6.38;51.71;101375.46;1657093;85;21072;-51
2022/01/28 07:29:19;;;;;;;21.20;16.55;;;;;;;6.46;51.64;101391.45;1661786;85;21040;-51
2022/01/28 07:31:46;;;;;;;22.67;16.77;;;;;;;6.56;51.54;101400.10;1660504;85;21064;-51
2022/01/28 07:34:13;;;;;;;23.85;16.87;;;;;;;6.64;51.50;101402.72;1645089;85;21568;-51
2022/01/28 07:36:40;;;;;;;21.95;17.02;;;;;;;6.74;51.31;101400.63;1669343;84;21062;-51
2022/01/28 07:39:07;;;;;;;23.70;18.62;;;;;;;6.81;50.81;101399.78;1682880;83;21085;-51
2022/01/28 07:41:34;;;;;;;24.75;19.73;;;;;;;6.84;50.55;101400.64;1731918;81;21471;-51
2022/01/28 07:44:01;;;;;;;22.65;17.82;;;;;;;6.86;50.46;101396.34;1710354;83;21087;-51
2022/01/28 07:46:27;;;;;;;25.05;19.62;;;;;;;6.90;50.38;101402.41;1701413;84;21094;-51
2022/01/28 07:48:54;;;;;;;24.45;18.40;;;;;;;6.93;50.32;101394.64;1701949;84;21492;-51
2022/01/28 07:51:21;;;;;;;23.02;17.48;;;;;;;6.97;50.30;101395.09;1714387;84;21004;-51
2022/01/28 07:53:47;;;;;;;25.17;18.23;;;;;;;6.98;50.26;101389.06;1715872;82;21023;-50
2022/01/28 07:56:14;;;;;;;23.10;17.00;;;;;;;7.00;50.22;101386.92;1754445;80;21040;-50
2022/01/28 07:58:41;;;;;;;28.12;20.05;;;;;;;7.03;50.27;101379.58;1754886;80;21062;-51
2022/01/28 08:01:07;;;;;;;23.32;16.90;;;;;;;7.06;50.22;101379.59;1746686;80;21527;-51
2022/01/28 08:03:34;;;;;;;23.70;17.77;;;;;;;7.12;50.19;101377.89;1763441;80;20982;-50
2022/01/28 08:06:01;;;;;;;23.92;18.87;;;;;;;7.17;50.21;101375.33;1764997;80;21042;-51
2022/01/28 08:08:27;;;;;;;22.70;16.65;;;;;;;7.23;50.23;101372.74;1767753;80;20958;-51
2022/01/28 08:10:53;;;;;;;22.32;17.30;;;;;;;7.29;50.15;101370.16;1758175;80;20997;-52
2022/01/28 08:13:20;;;;;;;22.75;16.90;;;;;;;7.34;49.76;101368.42;1771486;80;21073;-51
2022/01/28 08:15:46;;;;;;;23.75;16.37;;;;;;;7.36;49.84;101366.70;1765225;80;21117;-50
2022/01/28 08:18:12;;;;;;;21.95;17.82;;;;;;;7.39;49.76;101355.06;1754500;80;20959;-51
2022/01/28 08:20:39;;;;;;;23.55;17.12;;;;;;;7.43;49.55;101358.09;1760517;80;21037;-51
2022/01/28 08:23:06;;;;;;;23.95;17.90;;;;;;;7.46;49.54;101368.43;1757410;80;21603;-51
2022/01/28 08:25:35;;;;;;;26.05;18.20;;;;;;;7.50;49.53;101368.86;1765797;80;21046;-51
2022/01/28 08:28:03;;;;;;;21.77;16.55;;;;;;;7.58;49.65;101374.06;1747604;80;21495;-51
2022/01/28 08:30:29;;;;;;;23.52;17.95;;;;;;;7.64;49.57;101376.23;1764107;80;20987;-51
2022/01/28 08:32:56;;;;;;;21.25;16.67;;;;;;;7.70;49.31;101372.77;1766941;80;21003;-51
2022/01/28 08:35:29;;;;;;;22.73;17.65;;;;;;;7.75;49.25;101371.89;1769427;80;21034;-51
2022/01/28 08:37:52;;;;;;;22.10;17.48;;;;;;;7.80;49.19;101372.77;1750860;80;21087;-52
2022/01/28 08:40:18;;;;;;;22.00;16.57;;;;;;;7.86;49.13;101371.47;1761253;80;21018;-51
2022/01/28 08:42:46;;;;;;;23.85;17.15;;;;;;;7.90;49.14;101362.82;1736793;81;21768;-52
2022/01/28 08:45:12;;;;;;;22.45;17.75;;;;;;;7.95;49.15;101364.98;1760098;80;21502;-51
2022/01/28 08:47:38;;;;;;;23.77;17.57;;;;;;;7.99;49.09;101365.41;1762075;81;21675;-50
2022/01/28 08:50:06;;;;;;;21.35;17.07;;;;;;;8.02;48.74;101361.50;1738977;81;21050;-52
2022/01/28 08:52:33;;;;;;;22.37;18.10;;;;;;;8.04;48.68;101361.06;1755261;80;21520;-51
2022/01/28 08:55:01;;;;;;;24.63;18.37;;;;;;;8.07;48.83;101362.37;1765977;80;21546;-53
2022/01/28 08:57:27;;;;;;;25.25;17.62;;;;;;;8.10;48.76;101363.64;1756198;80;21505;-52
2022/01/28 08:59:53;;;;;;;23.00;17.37;;;;;;;8.13;48.84;101347.23;1766466;80;20975;-53
2022/01/28 09:02:20;;;;;;;23.42;18.27;;;;;;;8.17;48.82;101352.41;1751159;80;21077;-53
2022/01/28 09:04:47;;;;;;;23.70;17.92;;;;;;;8.24;48.75;101359.28;1755110;80;21026;-53
2022/01/28 09:07:14;;;;;;;22.62;17.42;;;;;;;8.31;48.61;101352.81;1763134;80;20963;-52
2022/01/28 09:09:48;;;;;;;21.50;17.52;;;;;;;8.37;48.33;101342.42;1766565;80;21042;-52
2022/01/28 09:12:34;;;;;;;21.12;16.87;;;;;;;8.42;48.21;101340.69;1762293;80;21082;-52
2022/01/28 09:14:48;;;;;;;25.15;17.92;;;;;;;8.44;48.17;101337.66;1758997;80;21002;-52
2022/01/28 09:17:14;;;;;;;21.30;17.60;;;;;;;8.45;48.17;101332.92;1752838;80;20983;-52
2022/01/28 09:19:44;;;;;;;25.62;17.85;;;;;;;8.45;48.03;101335.05;1760448;81;21085;-52
2022/01/28 09:22:11;;;;;;;21.85;17.15;;;;;;;8.45;47.92;101331.62;1744785;80;21560;-52
2022/01/28 09:24:38;;;;;;;24.07;19.32;;;;;;;8.43;47.96;101339.38;1757244;80;21128;-53
2022/01/28 09:27:06;;;;;;;23.40;17.65;;;;;;;8.42;48.10;101334.20;1763780;80;21045;-52
2022/01/28 09:29:33;;;;;;;59.85;40.17;;;;;;;8.42;48.21;101331.61;1759234;80;21104;-51
2022/01/28 09:32:00;;;;;;;46.02;33.23;;;;;;;8.43;48.21;101333.36;1772003;80;21486;-52
2022/01/28 09:34:27;;;;;;;35.20;26.93;;;;;;;8.44;48.31;101336.36;1771503;80;20990;-51
2022/01/28 09:36:54;;;;;;;36.75;27.85;;;;;;;8.48;48.48;101334.19;1744951;80;21560;-52
2022/01/28 09:39:20;;;;;;;35.63;24.95;;;;;;;8.53;48.19;101333.28;1756931;80;21513;-52
2022/01/28 09:41:48;;;;;;;29.82;22.67;;;;;;;8.59;48.10;101326.80;1763498;80;21509;-53
2022/01/28 09:44:17;;;;;;;25.23;20.08;;;;;;;8.62;48.08;101323.31;1758655;80;21001;-52
2022/01/28 09:46:44;;;;;;;23.22;18.12;;;;;;;8.63;48.21;101313.38;1741153;81;21039;-52
2022/01/28 09:49:11;;;;;;;23.62;17.87;;;;;;;8.65;48.34;101312.50;1757623;80;20958;-52
2022/01/28 09:51:38;;;;;;;20.27;18.05;;;;;;;8.68;48.18;101312.90;1744231;80;21081;-52
2022/01/28 09:54:05;;;;;;;20.65;16.77;;;;;;;8.69;47.95;101297.77;1767047;80;21018;-52
2022/01/28 09:56:31;;;;;;;22.65;17.27;;;;;;;8.68;47.90;101293.44;1747717;80;21021;-52
2022/01/28 09:58:59;;;;;;;23.85;18.02;;;;;;;8.66;47.80;101296.48;1753216;80;21061;-52
2022/01/28 10:04:03;;;;;;;28.77;21.75;;;;;;;8.59;47.58;101285.73;1700491;83;21103;-52
2022/01/28 10:06:34;;;;;;;23.75;19.85;;;;;;;8.56;47.72;101292.21;1704068;83;21075;-52
2022/01/28 10:09:12;;;;;;;24.20;19.45;;;;;;;8.54;47.80;101288.77;1697920;83;21006;-52
2022/01/28 10:11:41;;;;;;;26.17;19.92;;;;;;;8.52;47.81;101289.20;1695526;83;21115;-52
2022/01/28 10:14:20;;;;;;;27.22;19.02;;;;;;;8.50;47.85;101288.35;1699338;83;21024;-52
2022/01/28 10:16:58;;;;;;;28.70;22.98;;;;;;;8.47;48.00;101288.39;1692701;83;20994;-52
2022/01/28 10:19:27;;;;;;;29.02;22.95;;;;;;;8.46;47.97;101284.05;1695886;83;21526;-51
2022/01/28 10:21:54;;;;;;;28.35;20.27;;;;;;;8.43;48.01;101281.03;1702946;83;20991;-53
2022/01/28 10:24:25;;;;;;;23.50;18.60;;;;;;;8.41;48.01;101287.12;1703353;83;21060;-51
2022/01/28 10:29:33;;;;;;;23.62;18.95;;;;;;;8.38;48.39;101293.60;1607901;88;21085;-51
2022/01/28 10:32:07;;;;;;;22.35;17.75;;;;;;;8.37;48.51;101286.67;1619621;88;21055;-51
2022/01/28 10:34:40;;;;;;;23.65;17.82;;;;;;;8.37;48.67;101286.67;1564965;90;21142;-51
2022/01/28 10:37:16;;;;;;;22.15;17.23;;;;;;;8.38;48.69;101280.20;1558074;90;21074;-52
2022/01/28 10:39:58;;;;;;;22.52;17.85;;;;;;;8.39;48.82;101283.67;1551577;90;21060;-51
2022/01/28 10:42:40;;;;;;;21.07;16.60;;;;;;;8.42;48.87;101286.23;1514890;93;21118;-53
2022/01/28 10:45:13;;;;;;;23.92;17.67;;;;;;;8.42;48.97;101280.63;1514613;93;21540;-52
2022/01/28 10:47:49;;;;;;;21.35;16.57;;;;;;;8.44;49.08;101275.42;1524164;92;21642;-52
2022/01/28 10:50:30;;;;;;;22.65;17.25;;;;;;;8.44;49.10;101270.23;1506298;94;21096;-53
2022/01/28 10:53:09;;;;;;;24.02;17.80;;;;;;;8.43;48.97;101271.12;1527816;92;21114;-52
2022/01/28 10:55:43;;;;;;;25.35;18.00;;;;;;;8.42;49.05;101268.08;1557614;91;21040;-52
2022/01/28 10:58:13;;;;;;;21.40;16.87;;;;;;;8.43;49.16;101268.52;1516979;92;21067;-52
2022/01/28 11:00:44;;;;;;;22.77;17.15;;;;;;;8.43;49.25;101273.71;1546242;91;21059;-52
2022/01/28 11:03:13;;;;;;;24.60;17.77;;;;;;;8.47;49.25;101278.02;1574346;90;21129;-53
2022/01/28 11:05:39;;;;;;;24.07;17.92;;;;;;;8.50;49.23;101279.28;1571998;90;21078;-52
2022/01/28 11:08:08;;;;;;;22.15;16.52;;;;;;;8.52;49.19;101285.31;1566801;90;21066;-52
2022/01/28 11:10:35;;;;;;;22.95;17.62;;;;;;;8.52;49.15;101291.80;1568954;90;21087;-52
2022/01/28 11:13:02;;;;;;;23.20;16.65;;;;;;;8.50;49.23;101283.17;1563219;91;21083;-52
2022/01/28 11:15:29;;;;;;;26.45;17.57;;;;;;;8.48;49.40;101278.00;1550307;92;21160;-52
2022/01/28 11:17:58;;;;;;;24.50;18.05;;;;;;;8.48;49.51;101268.05;1551042;92;21113;-52
2022/01/28 11:20:33;;;;;;;23.83;18.30;;;;;;;8.49;49.70;101262.01;1542318;92;21082;-52
2022/01/28 11:23:41;;;;;;;20.80;17.02;;;;;;;8.51;49.90;101261.56;1579299;90;21110;-52
2022/01/28 11:26:41;;;;;;;23.07;17.75;;;;;;;8.56;50.01;101252.01;1587563;89;21075;-52
2022/01/28 11:29:25;;;;;;;22.80;17.45;;;;;;;8.62;49.73;101245.48;1605384;88;21558;-53
2022/01/28 11:31:53;;;;;;;23.80;18.05;;;;;;;8.67;49.68;101232.06;1608678;88;21095;-51
2022/01/28 11:34:30;;;;;;;24.07;17.30;;;;;;;8.72;49.51;101228.98;1612172;88;21098;-51
2022/01/28 11:37:13;;;;;;;24.32;18.70;;;;;;;8.74;49.42;101219.45;1636006;86;21066;-51
2022/01/28 11:39:45;;;;;;;22.60;17.15;;;;;;;8.78;49.45;101226.34;1588867;89;21677;-53
2022/01/28 11:42:18;;;;;;;23.85;18.00;;;;;;;8.80;49.18;101225.90;1589771;89;21126;-51
2022/01/28 11:44:54;;;;;;;22.75;17.25;;;;;;;8.81;49.05;101237.59;1602095;88;21077;-51
2022/01/28 11:47:32;;;;;;;22.32;16.67;;;;;;;8.83;49.07;101242.77;1643621;86;21063;-53
2022/01/28 11:50:14;;;;;;;21.07;16.32;;;;;;;8.83;48.92;101239.73;1640213;86;21046;-51
2022/01/28 11:52:47;;;;;;;23.35;17.23;;;;;;;8.85;48.87;101245.78;1643874;86;21034;-53
2022/01/28 11:55:28;;;;;;;21.23;16.07;;;;;;;8.90;48.81;101248.34;1632489;86;21066;-52
2022/01/28 11:58:11;;;;;;;23.07;17.27;;;;;;;8.93;48.78;101245.72;1631641;86;21085;-51
2022/01/28 12:00:45;;;;;;;22.80;17.30;;;;;;;8.96;48.76;101258.22;1637325;86;21054;-51
2022/01/28 12:03:26;;;;;;;23.12;17.20;;;;;;;9.01;48.76;101262.09;1611260;87;21042;-51
2022/01/28 12:06:08;;;;;;;19.40;15.93;;;;;;;9.04;48.69;101254.30;1658515;85;21093;-53
2022/01/28 12:08:34;;;;;;;22.58;16.70;;;;;;;9.07;48.54;101258.15;1611511;87;21091;-53
2022/01/28 12:11:06;;;;;;;22.55;17.95;;;;;;;9.06;48.41;101251.25;1577187;89;21129;-53
2022/01/28 12:14:02;;;;;;;23.45;17.57;;;;;;;9.05;48.42;101250.81;1581472;89;21090;-53
2022/01/28 12:16:31;;;;;;;23.07;16.73;;;;;;;9.05;48.28;101266.38;1609732;85;21105;-52
2022/01/28 12:18:58;;;;;;;24.67;17.10;;;;;;;9.03;48.18;101252.55;1691126;85;21034;-52
2022/01/28 12:21:27;;;;;;;22.05;15.68;;;;;;;9.02;48.25;101259.94;1714405;83;21010;-53
2022/01/28 12:23:57;;;;;;;22.50;16.37;;;;;;;9.00;48.18;101259.09;1672460;84;21585;-53
2022/01/28 12:26:24;;;;;;;21.45;15.10;;;;;;;9.01;47.97;101259.50;1656510;86;21578;-53
2022/01/28 12:28:53;;;;;;;22.02;16.55;;;;;;;9.01;47.84;101260.80;1658583;85;21047;-53
2022/01/28 12:31:29;;;;;;;19.35;16.20;;;;;;;8.99;47.80;101257.34;1669267;84;21058;-52
2022/01/28 12:34:00;;;;;;;19.40;15.70;;;;;;;8.99;47.74;101256.05;1682315;84;21133;-52
2022/01/28 12:36:33;;;;;;;21.87;17.52;;;;;;;8.95;47.67;101255.65;1659551;86;20995;-52
2022/01/28 12:41:50;;;;;;;21.35;16.93;;;;;;;8.88;47.79;101268.26;1607197;88;21553;-52
2022/01/28 12:44:15;;;;;;;20.23;16.02;;;;;;;8.81;47.81;101266.56;1660202;86;21594;-52
2022/01/28 12:46:47;;;;;;;18.50;14.73;;;;;;;8.76;47.84;101272.20;1644976;86;21158;-52
2022/01/28 12:49:14;;;;;;;18.40;15.32;;;;;;;8.68;47.90;101266.20;1637873;86;21037;-52
2022/01/28 12:51:40;;;;;;;20.48;15.60;;;;;;;8.62;47.98;101261.92;1621672;86;21072;-52
2022/01/28 12:54:06;;;;;;;19.45;14.73;;;;;;;8.56;48.03;101270.16;1653105;86;21034;-52
2022/01/28 12:56:38;;;;;;;19.48;14.63;;;;;;;8.53;48.17;101283.17;1643656;86;21069;-52
2022/01/28 12:59:05;;;;;;;19.20;14.75;;;;;;;8.51;48.24;101277.13;1656683;86;21601;-52
2022/01/28 13:01:33;;;;;;;18.82;14.87;;;;;;;8.48;48.34;101275.41;1641764;86;21064;-52
2022/01/28 13:04:11;;;;;;;21.33;15.45;;;;;;;8.48;48.30;101273.23;1656361;86;21054;-52